createdAt,value
2017-05-18T00:01:24.672Z,6.36
2017-05-18T00:03:52.419Z,9.28
2017-05-18T00:06:20.135Z,7.74
2017-05-18T00:08:48.369Z,8.58
2017-05-18T00:11:16.088Z,6.20
2017-05-18T00:13:43.817Z,7.12
2017-05-18T00:16:12.480Z,6.68
2017-05-18T00:18:40.208Z,6.66
2017-05-18T00:21:07.928Z,6.66
2017-05-18T00:23:36.789Z,6.86
2017-05-18T00:26:04.536Z,9.54
2017-05-18T00:28:32.256Z,7.40
2017-05-18T00:31:00.012Z,13.20
2017-05-18T00:33:27.729Z,8.04
2017-05-18T00:35:55.465Z,6.56
2017-05-18T00:38:23.576Z,7.76
2017-05-18T00:40:51.292Z,10.26
2017-05-18T00:43:19.016Z,6.98
2017-05-18T00:45:47.499Z,7.90
2017-05-18T00:48:15.980Z,7.88
2017-05-18T00:50:44.443Z,7.88
2017-05-18T00:53:12.249Z,8.68
2017-05-18T00:55:39.980Z,8.16
2017-05-18T00:58:07.704Z,6.66
2017-05-18T01:00:35.917Z,7.68
2017-05-18T01:03:03.640Z,6.48
2017-05-18T01:05:31.363Z,6.70
2017-05-18T01:07:59.856Z,13.70
2017-05-18T01:10:27.571Z,7.48
2017-05-18T01:12:55.309Z,7.38
2017-05-18T01:15:23.515Z,7.58
2017-05-18T01:17:51.232Z,10.16
2017-05-18T01:20:18.967Z,9.10
2017-05-18T01:22:47.471Z,7.78
2017-05-18T01:25:15.195Z,7.68
2017-05-18T01:27:42.917Z,8.22
2017-05-18T01:30:10.662Z,7.68
2017-05-18T01:32:38.385Z,7.92
2017-05-18T01:35:06.883Z,9.22
2017-05-18T01:37:35.951Z,8.06
2017-05-18T01:40:03.703Z,9.20
2017-05-18T01:42:31.417Z,8.82
2017-05-18T01:44:59.352Z,10.02
2017-05-18T01:47:27.067Z,8.36
2017-05-18T01:49:54.788Z,8.12
2017-05-18T01:52:23.281Z,8.64
2017-05-18T01:54:51.037Z,12.48
2017-05-18T01:57:18.753Z,8.36
2017-05-18T01:59:47.669Z,8.64
2017-05-18T02:02:15.391Z,9.66
2017-05-18T02:04:43.104Z,11.26
2017-05-18T02:07:11.164Z,11.50
2017-05-18T02:09:38.907Z,7.98
2017-05-18T02:12:06.632Z,8.96
2017-05-18T02:14:34.676Z,9.00
2017-05-18T02:17:03.136Z,8.74
2017-05-18T02:19:30.860Z,9.66
2017-05-18T02:21:58.616Z,9.76
2017-05-18T02:24:26.336Z,10.32
2017-05-18T02:26:55.636Z,9.50
2017-05-18T02:29:23.401Z,11.76
2017-05-18T02:31:51.124Z,10.10
2017-05-18T02:34:18.844Z,10.34
2017-05-18T02:36:47.755Z,10.20
2017-05-18T02:39:15.475Z,9.94
2017-05-18T02:41:43.200Z,10.10
2017-05-18T02:44:11.412Z,10.02
2017-05-18T02:46:39.146Z,10.26
2017-05-18T02:49:06.868Z,10.44
2017-05-18T02:51:35.014Z,9.80
2017-05-18T02:54:02.735Z,9.77
2017-05-18T02:56:30.452Z,9.88
2017-05-18T02:58:58.944Z,10.60
2017-05-18T03:01:27.408Z,9.14
2017-05-18T03:03:55.150Z,9.52
2017-05-18T03:06:23.138Z,9.94
2017-05-18T03:08:50.863Z,9.44
2017-05-18T03:11:18.588Z,10.64
2017-05-18T03:13:46.353Z,10.44
2017-05-18T03:16:14.091Z,9.42
2017-05-18T03:18:41.812Z,10.62
2017-05-18T03:21:09.717Z,11.92
2017-05-18T03:23:37.432Z,10.90
2017-05-18T03:26:05.183Z,9.80
2017-05-18T03:28:34.752Z,10.88
2017-05-18T03:31:03.225Z,10.36
2017-05-18T03:33:30.948Z,10.78
2017-05-18T03:35:58.692Z,11.62
2017-05-18T03:38:26.432Z,12.36
2017-05-18T03:40:54.900Z,10.82
2017-05-18T03:43:22.974Z,12.16
2017-05-18T03:45:51.435Z,11.02
2017-05-18T03:48:19.148Z,9.82
2017-05-18T03:50:47.488Z,10.94
2017-05-18T03:53:15.204Z,9.88
2017-05-18T03:55:42.928Z,12.60
2017-05-18T03:58:11.699Z,13.42
2017-05-18T04:00:39.418Z,11.18
2017-05-18T04:03:07.139Z,10.50
2017-05-18T04:05:35.914Z,10.76
2017-05-18T04:08:03.656Z,11.98
2017-05-18T04:10:31.379Z,13.00
2017-05-18T04:12:59.143Z,10.72
2017-05-18T04:15:26.868Z,12.44
2017-05-18T04:17:54.584Z,10.44
2017-05-18T04:20:22.700Z,11.04
2017-05-18T04:22:50.424Z,11.82
2017-05-18T04:25:18.159Z,11.16
2017-05-18T04:27:46.206Z,13.66
2017-05-18T04:30:13.932Z,12.82
2017-05-18T04:32:41.656Z,10.64
2017-05-18T04:35:09.409Z,11.30
2017-05-18T04:37:37.892Z,14.10
2017-05-18T04:40:06.356Z,13.40
2017-05-18T04:42:34.868Z,11.04
2017-05-18T04:45:02.591Z,11.82
2017-05-18T04:47:30.308Z,11.50
2017-05-18T04:49:58.432Z,11.52
2017-05-18T04:52:26.160Z,11.90
2017-05-18T04:54:53.888Z,11.64
2017-05-18T04:57:22.032Z,12.32
2017-05-18T04:59:49.751Z,12.08
2017-05-18T05:02:17.468Z,10.86
2017-05-18T05:04:45.237Z,11.28
2017-05-18T05:07:13.706Z,11.46
2017-05-18T05:09:41.448Z,12.04
2017-05-18T05:12:09.192Z,10.88
2017-05-18T05:14:36.921Z,10.60
2017-05-18T05:17:04.670Z,14.78
2017-05-18T05:19:33.383Z,11.10
2017-05-18T05:22:01.189Z,11.38
2017-05-18T05:24:28.913Z,13.10
2017-05-18T05:26:56.680Z,11.68
2017-05-18T05:29:24.401Z,11.24
2017-05-18T05:31:52.877Z,9.98
2017-05-18T05:34:21.657Z,10.08
2017-05-18T05:36:49.381Z,10.92
2017-05-18T05:39:17.104Z,10.44
2017-05-18T05:41:45.592Z,10.86
2017-05-18T05:44:13.334Z,17.72
2017-05-18T05:46:41.064Z,10.60
2017-05-18T05:49:08.808Z,9.60
2017-05-18T05:51:36.534Z,15.74
2017-05-18T05:54:05.015Z,10.92
2017-05-18T05:56:33.068Z,11.70
2017-05-18T05:59:00.796Z,11.16
2017-05-18T06:01:28.527Z,13.20
2017-05-18T06:03:56.985Z,11.42
2017-05-18T06:06:25.443Z,9.54
2017-05-18T06:08:53.159Z,10.38
2017-05-18T06:11:21.266Z,9.72
2017-05-18T06:13:48.996Z,10.40
2017-05-18T06:16:17.227Z,9.98
2017-05-18T06:18:44.995Z,10.56
2017-05-18T06:21:12.737Z,9.86
2017-05-18T06:23:40.465Z,9.88
2017-05-18T06:26:08.234Z,15.46
2017-05-18T06:28:35.984Z,9.90
2017-05-18T06:31:03.713Z,10.16
2017-05-18T06:33:31.680Z,11.84
2017-05-18T06:35:59.626Z,10.46
2017-05-18T06:38:27.409Z,13.34
2017-05-18T06:40:55.684Z,12.32
2017-05-18T06:43:23.404Z,11.36
2017-05-18T06:45:51.136Z,10.86
2017-05-18T06:48:18.904Z,10.44
2017-05-18T06:50:46.641Z,13.54
2017-05-18T06:53:14.371Z,11.32
2017-05-18T06:55:42.472Z,12.34
2017-05-18T06:58:10.201Z,11.82
2017-05-18T07:00:37.925Z,9.60
2017-05-18T07:03:06.016Z,12.66
2017-05-18T07:05:33.739Z,12.22
2017-05-18T07:08:01.460Z,8.18
2017-05-18T07:10:29.239Z,10.30
2017-05-18T07:12:56.956Z,10.32
2017-05-18T07:15:24.675Z,10.16
2017-05-18T07:17:52.752Z,8.70
2017-05-18T07:20:20.467Z,9.52
2017-05-18T07:22:48.193Z,9.14
2017-05-18T07:25:16.683Z,8.86
2017-05-18T07:27:44.424Z,8.06
2017-05-18T07:30:12.144Z,9.26
2017-05-18T07:32:39.889Z,10.04
2017-05-18T07:35:08.439Z,9.64
2017-05-18T07:37:36.164Z,9.88
2017-05-18T07:40:04.454Z,9.00
2017-05-18T07:42:32.176Z,8.56
2017-05-18T07:44:59.898Z,9.48
2017-05-18T07:47:28.278Z,11.36
2017-05-18T07:49:55.992Z,8.50
2017-05-18T07:52:23.716Z,8.76
2017-05-18T07:54:53.154Z,10.04
2017-05-18T07:57:20.880Z,8.36
2017-05-18T07:59:49.345Z,9.30
2017-05-18T08:02:18.524Z,8.24
2017-05-18T08:04:46.239Z,7.46
2017-05-18T08:07:13.961Z,9.52
2017-05-18T08:09:43.717Z,15.04
2017-05-18T08:12:11.440Z,9.10
2017-05-18T08:14:39.160Z,7.26
2017-05-18T08:17:06.928Z,8.12
2017-05-18T08:19:34.652Z,7.98
2017-05-18T08:22:03.112Z,7.26
2017-05-18T08:24:31.170Z,11.28
2017-05-18T08:26:58.891Z,8.08
2017-05-18T08:29:26.607Z,7.72
2017-05-18T08:31:54.683Z,10.28
2017-05-18T08:34:22.399Z,7.76
2017-05-18T08:36:50.129Z,10.72
2017-05-18T08:39:18.632Z,9.08
2017-05-18T08:41:46.355Z,6.74
2017-05-18T08:44:14.081Z,8.28
2017-05-18T08:46:41.829Z,8.30
2017-05-18T08:49:09.572Z,7.68
2017-05-18T08:51:37.291Z,8.18
2017-05-18T08:54:05.047Z,10.82
2017-05-18T08:56:32.820Z,8.90
2017-05-18T08:59:00.535Z,8.98
2017-05-18T09:01:28.563Z,8.90
2017-05-18T09:03:56.284Z,7.70
2017-05-18T09:06:24.009Z,12.78
2017-05-18T09:08:53.083Z,10.84
2017-05-18T09:11:20.804Z,8.14
2017-05-18T09:13:48.528Z,9.95
2017-05-18T09:16:17.033Z,10.40
2017-05-18T09:18:44.751Z,7.54
2017-05-18T09:21:12.472Z,8.60
2017-05-18T09:23:40.230Z,9.94
2017-05-18T09:26:07.953Z,7.62
2017-05-18T09:28:36.164Z,10.24
2017-05-18T09:31:04.492Z,14.06
2017-05-18T09:33:32.225Z,9.00
2017-05-18T09:35:59.948Z,8.52
2017-05-18T09:38:28.000Z,10.18
2017-05-18T09:40:55.733Z,14.06
2017-05-18T09:43:23.459Z,9.68
2017-05-18T09:45:51.487Z,10.98
2017-05-18T09:48:19.210Z,10.86
2017-05-18T09:50:46.932Z,10.30
2017-05-18T09:53:15.414Z,9.34
2017-05-18T09:55:43.137Z,10.76
2017-05-18T09:58:10.875Z,11.08
2017-05-18T10:00:39.196Z,10.96
2017-05-18T10:03:06.911Z,11.68
2017-05-18T10:05:34.640Z,10.08
2017-05-18T10:08:03.512Z,11.74
2017-05-18T10:10:31.238Z,11.32
2017-05-18T10:12:58.957Z,12.16
2017-05-18T10:15:28.035Z,10.94
2017-05-18T10:17:55.786Z,12.10
2017-05-18T10:20:23.503Z,9.44
2017-05-18T10:22:51.740Z,12.74
2017-05-18T10:25:19.459Z,9.46
2017-05-18T10:27:47.176Z,10.00
2017-05-18T10:30:15.664Z,10.06
2017-05-18T10:32:44.639Z,10.14
2017-05-18T10:35:13.112Z,10.14
2017-05-18T10:37:40.873Z,8.50
2017-05-18T10:40:08.591Z,12.48
2017-05-18T10:42:36.313Z,12.20
2017-05-18T10:45:05.500Z,10.22
2017-05-18T10:47:33.215Z,9.12
2017-05-18T10:50:00.940Z,11.38
2017-05-18T10:52:29.713Z,11.54
2017-05-18T10:54:57.430Z,10.10
2017-05-18T10:57:25.157Z,11.00
2017-05-18T10:59:54.763Z,8.92
2017-05-18T11:02:23.231Z,12.22
2017-05-18T11:04:50.952Z,10.10
2017-05-18T11:07:19.197Z,8.20
2017-05-18T11:09:46.920Z,9.34
2017-05-18T11:12:14.640Z,8.26
2017-05-18T11:14:42.964Z,10.30
2017-05-18T11:17:10.689Z,8.48
2017-05-18T11:19:38.405Z,8.52
2017-05-18T11:22:07.623Z,6.44
2017-05-18T11:24:35.344Z,7.90
2017-05-18T11:27:03.069Z,8.56
2017-05-18T11:29:30.816Z,11.16
2017-05-18T11:31:58.552Z,12.26
2017-05-18T11:34:26.284Z,8.64
2017-05-18T11:36:54.044Z,11.64
2017-05-18T11:39:21.781Z,10.64
2017-05-18T11:41:49.520Z,12.44
2017-05-18T11:44:18.184Z,12.56
2017-05-18T11:46:46.743Z,17.00
2017-05-18T11:49:14.467Z,13.92
2017-05-18T11:51:42.400Z,13.68
2017-05-18T11:54:10.131Z,11.68
2017-05-18T11:56:37.859Z,14.46
2017-05-18T11:59:05.892Z,20.14
2017-05-18T12:01:33.615Z,13.72
2017-05-18T12:04:01.345Z,14.44
2017-05-18T12:06:30.003Z,16.88
2017-05-18T12:08:57.724Z,16.02
2017-05-18T12:11:25.452Z,21.78
2017-05-18T12:13:53.962Z,22.28
2017-05-18T12:16:21.683Z,27.16
2017-05-18T12:18:50.147Z,23.22
2017-05-18T12:21:17.900Z,31.46
2017-05-18T12:23:45.619Z,35.22
2017-05-18T12:26:13.359Z,39.82
2017-05-18T12:28:42.436Z,34.90
2017-05-18T12:31:10.164Z,33.90
2017-05-18T12:33:37.901Z,32.98
2017-05-18T12:36:06.756Z,29.98
2017-05-18T12:38:34.483Z,30.64
2017-05-18T12:41:02.234Z,31.20
2017-05-18T12:43:29.996Z,34.72
2017-05-18T12:45:57.724Z,32.68
2017-05-18T12:48:26.188Z,29.26
2017-05-18T12:50:55.400Z,35.14
2017-05-18T12:53:23.864Z,36.14
2017-05-18T12:55:51.613Z,31.78
2017-05-18T12:58:19.378Z,38.60
2017-05-18T13:00:47.133Z,31.82
2017-05-18T13:03:14.866Z,28.60
2017-05-18T13:05:42.987Z,30.68
2017-05-18T13:08:10.718Z,27.36
2017-05-18T13:10:38.597Z,32.38
2017-05-18T13:13:06.348Z,34.24
2017-05-18T13:15:34.076Z,28.98
2017-05-18T13:18:01.821Z,32.08
2017-05-18T13:20:29.908Z,31.30
2017-05-18T13:22:57.644Z,30.18
2017-05-18T13:25:25.491Z,29.20
2017-05-18T13:27:53.476Z,28.10
2017-05-18T13:30:21.206Z,24.50
2017-05-18T13:32:49.837Z,25.10
2017-05-18T13:35:19.409Z,23.22
2017-05-18T13:37:47.150Z,18.82
2017-05-18T13:40:14.876Z,14.92
2017-05-18T13:42:43.747Z,19.64
2017-05-18T13:45:11.476Z,20.50
2017-05-18T13:47:39.203Z,15.60
2017-05-18T13:50:06.963Z,17.30
2017-05-18T13:52:35.428Z,15.16
2017-05-18T13:55:03.937Z,10.52
2017-05-18T13:57:31.697Z,13.80
2017-05-18T13:59:59.424Z,11.96
2017-05-18T14:02:27.162Z,12.48
2017-05-18T14:04:54.907Z,10.24
2017-05-18T14:07:22.644Z,7.92
2017-05-18T14:09:50.459Z,11.40
2017-05-18T14:12:18.177Z,7.02
2017-05-18T14:14:45.905Z,9.00
2017-05-18T14:17:13.624Z,8.04
2017-05-18T14:19:41.340Z,9.64
2017-05-18T14:22:11.172Z,10.40
2017-05-18T14:24:38.955Z,10.00
2017-05-18T14:27:06.676Z,12.54
2017-05-18T14:29:34.396Z,12.30
2017-05-18T14:32:02.121Z,12.66
2017-05-18T14:34:30.596Z,11.30
2017-05-18T14:36:59.140Z,10.14
2017-05-18T14:39:27.435Z,15.72
2017-05-18T14:41:55.168Z,14.76
2017-05-18T14:44:22.905Z,13.40
2017-05-18T14:46:50.627Z,10.38
2017-05-18T14:49:18.344Z,10.92
2017-05-18T14:51:46.967Z,8.02
2017-05-18T14:54:14.690Z,11.50
2017-05-18T14:56:42.415Z,9.76
2017-05-18T14:59:10.468Z,8.86
2017-05-18T15:01:39.487Z,10.50
2017-05-18T15:04:07.209Z,10.74
2017-05-18T15:06:34.957Z,10.72
2017-05-18T15:09:02.727Z,8.34
2017-05-18T15:11:30.463Z,9.84
2017-05-18T15:13:58.796Z,10.52
2017-05-18T15:16:26.519Z,11.64
2017-05-18T15:18:54.240Z,9.78
2017-05-18T15:21:21.999Z,7.56
2017-05-18T15:23:50.540Z,8.20
2017-05-18T15:26:18.303Z,9.52
2017-05-18T15:28:46.409Z,10.44
2017-05-18T15:31:14.880Z,12.70
2017-05-18T15:33:42.604Z,7.24
2017-05-18T15:36:10.353Z,4.68
2017-05-18T15:38:38.100Z,4.74
2017-05-18T15:41:05.820Z,8.24
2017-05-18T15:43:33.587Z,7.60
2017-05-18T15:46:01.312Z,6.06
2017-05-18T15:48:29.034Z,5.10
2017-05-18T15:50:57.520Z,5.04
2017-05-18T15:53:26.009Z,4.40
2017-05-18T15:55:53.739Z,4.30
2017-05-18T15:58:21.486Z,3.14
2017-05-18T16:00:49.231Z,3.82
2017-05-18T16:03:18.148Z,5.04
2017-05-18T16:05:46.127Z,2.44
2017-05-18T16:08:13.846Z,2.64
2017-05-18T16:10:41.570Z,2.22
2017-05-18T16:13:10.197Z,5.08
2017-05-18T16:15:37.915Z,2.50
2017-05-18T16:18:06.379Z,3.80
2017-05-18T16:20:34.356Z,4.14
2017-05-18T16:23:02.077Z,3.34
2017-05-18T16:25:29.792Z,2.98
2017-05-18T16:27:58.465Z,2.64
2017-05-18T16:30:26.204Z,2.58
2017-05-18T16:32:53.924Z,3.32
2017-05-18T16:35:21.654Z,2.84
2017-05-18T16:37:49.372Z,2.64
2017-05-18T16:40:17.112Z,3.86
2017-05-18T16:42:44.847Z,4.70
2017-05-18T16:45:12.568Z,4.36
2017-05-18T16:47:42.212Z,3.14
2017-05-18T16:50:09.937Z,4.14
2017-05-18T16:52:37.715Z,3.22
2017-05-18T16:55:05.932Z,2.60
2017-05-18T16:57:34.391Z,8.82
2017-05-18T17:00:02.140Z,2.50
2017-05-18T17:02:29.890Z,2.24
2017-05-18T17:04:57.636Z,2.82
2017-05-18T17:07:25.366Z,8.96
2017-05-18T17:09:53.981Z,3.36
2017-05-18T17:12:21.708Z,2.10
2017-05-18T17:14:50.471Z,1.98
2017-05-18T17:17:19.069Z,2.84
2017-05-18T17:19:46.800Z,1.90
2017-05-18T17:22:14.528Z,2.12
2017-05-18T17:24:42.312Z,3.36
2017-05-18T17:27:10.036Z,4.44
2017-05-18T17:29:37.759Z,3.26
2017-05-18T17:32:06.563Z,2.96
2017-05-18T17:34:34.285Z,3.48
2017-05-18T17:37:02.020Z,1.50
2017-05-18T17:39:30.885Z,1.40
2017-05-18T17:41:58.609Z,1.66
2017-05-18T17:44:26.338Z,2.54
2017-05-18T17:46:54.820Z,4.00
2017-05-18T17:49:22.554Z,1.84
2017-05-18T17:51:50.312Z,2.20
2017-05-18T17:54:18.061Z,2.12
2017-05-18T17:56:45.784Z,2.54
2017-05-18T17:59:13.522Z,2.30
2017-05-18T18:01:42.000Z,2.22
2017-05-18T18:04:10.576Z,3.72
2017-05-18T18:06:38.357Z,3.68
2017-05-18T18:09:06.880Z,2.58
2017-05-18T18:11:34.610Z,2.96
2017-05-18T18:14:02.335Z,5.32
2017-05-18T18:16:30.089Z,3.02
2017-05-18T18:18:57.813Z,5.00
2017-05-18T18:21:25.611Z,3.42
2017-05-18T18:23:54.320Z,3.52
2017-05-18T18:26:22.035Z,2.86
2017-05-18T18:28:49.768Z,2.96
2017-05-18T18:31:19.350Z,6.00
2017-05-18T18:33:47.076Z,4.48
2017-05-18T18:36:14.804Z,4.74
2017-05-18T18:38:43.568Z,6.16
2017-05-18T18:41:12.057Z,2.86
2017-05-18T18:43:40.523Z,3.42
2017-05-18T18:46:09.007Z,3.16
2017-05-18T18:48:36.746Z,6.78
2017-05-18T18:51:04.476Z,2.28
2017-05-18T18:53:32.224Z,4.54
2017-05-18T18:55:59.956Z,1.98
2017-05-18T18:58:27.696Z,6.40
2017-05-18T19:00:55.456Z,4.94
2017-05-18T19:03:23.197Z,2.06
2017-05-18T19:05:50.916Z,1.64
2017-05-18T19:08:18.684Z,4.28
2017-05-18T19:10:46.404Z,1.92
2017-05-18T19:13:14.128Z,7.20
2017-05-18T19:15:43.132Z,2.72
2017-05-18T19:18:10.848Z,2.84
2017-05-18T19:20:38.564Z,3.28
2017-05-18T19:23:06.327Z,3.06
2017-05-18T19:25:34.083Z,3.22
2017-05-18T19:28:01.813Z,4.30
2017-05-18T19:30:30.596Z,3.28
2017-05-18T19:32:58.311Z,2.40
2017-05-18T19:35:26.036Z,4.26
2017-05-18T19:37:54.935Z,6.10
2017-05-18T19:40:22.664Z,7.14
2017-05-18T19:42:50.384Z,4.72
2017-05-18T19:45:18.135Z,11.00
2017-05-18T19:47:45.884Z,5.86
2017-05-18T19:50:14.427Z,2.66
2017-05-18T19:52:43.142Z,7.30
2017-05-18T19:55:11.698Z,8.00
2017-05-18T19:57:39.425Z,8.36
2017-05-18T20:00:07.753Z,5.74
2017-05-18T20:02:35.499Z,7.86
2017-05-18T20:05:03.221Z,5.46
2017-05-18T20:07:30.947Z,7.24
2017-05-18T20:09:58.804Z,9.36
2017-05-18T20:12:26.540Z,5.38
2017-05-18T20:14:54.278Z,4.74
2017-05-18T20:17:22.028Z,3.76
2017-05-18T20:19:50.508Z,5.10
2017-05-18T20:22:18.968Z,4.92
2017-05-18T20:24:48.112Z,7.92
2017-05-18T20:27:15.828Z,4.42
2017-05-18T20:29:43.553Z,6.68
2017-05-18T20:32:12.944Z,4.62
2017-05-18T20:34:40.667Z,7.92
2017-05-18T20:37:08.400Z,3.76
2017-05-18T20:39:36.147Z,6.96
2017-05-18T20:42:04.628Z,4.38
2017-05-18T20:44:33.095Z,5.06
2017-05-18T20:47:00.903Z,5.38
2017-05-18T20:49:28.649Z,7.56
2017-05-18T20:51:56.377Z,6.84
2017-05-18T20:54:24.145Z,11.82
2017-05-18T20:56:51.861Z,8.76
2017-05-18T20:59:19.593Z,11.16
2017-05-18T21:01:48.461Z,6.90
2017-05-18T21:04:16.189Z,12.40
2017-05-18T21:06:43.920Z,13.02
2017-05-18T21:09:11.695Z,7.94
2017-05-18T21:11:40.235Z,13.48
2017-05-18T21:14:07.960Z,8.16
2017-05-18T21:16:35.997Z,10.04
2017-05-18T21:19:03.721Z,13.52
2017-05-18T21:21:31.440Z,12.50
2017-05-18T21:23:59.184Z,10.67
2017-05-18T21:26:26.924Z,10.48
2017-05-18T21:28:54.644Z,10.32
2017-05-18T21:31:22.755Z,10.62
2017-05-18T21:33:50.485Z,11.20
2017-05-18T21:36:18.208Z,9.30
2017-05-18T21:38:45.953Z,12.82
2017-05-18T21:41:14.425Z,18.62
2017-05-18T21:43:42.162Z,10.46
2017-05-18T21:46:10.251Z,12.44
2017-05-18T21:48:37.980Z,12.30
2017-05-18T21:51:05.709Z,11.68
2017-05-18T21:53:34.368Z,12.72
2017-05-18T21:56:02.087Z,9.92
2017-05-18T21:58:29.805Z,14.62
2017-05-18T22:00:58.321Z,13.30
2017-05-18T22:03:26.044Z,18.64
2017-05-18T22:05:53.772Z,12.26
2017-05-18T22:08:21.657Z,11.52
2017-05-18T22:10:49.387Z,12.94
2017-05-18T22:13:17.464Z,13.94
2017-05-18T22:15:45.197Z,16.42
2017-05-18T22:18:12.933Z,19.08
2017-05-18T22:20:41.104Z,14.28
2017-05-18T22:23:08.884Z,15.62
2017-05-18T22:25:37.344Z,25.10
2017-05-18T22:28:06.244Z,15.60
2017-05-18T22:30:33.982Z,18.78
2017-05-18T22:33:01.717Z,18.58
2017-05-18T22:35:29.459Z,24.32
2017-05-18T22:37:57.193Z,19.90
2017-05-18T22:40:24.920Z,28.35
2017-05-18T22:42:52.648Z,24.88
2017-05-18T22:45:20.391Z,22.44
2017-05-18T22:47:48.860Z,18.86
2017-05-18T22:50:16.630Z,22.04
2017-05-18T22:52:45.104Z,21.80
2017-05-18T22:55:12.835Z,21.10
2017-05-18T22:57:40.609Z,31.94
2017-05-18T23:00:08.405Z,20.28
2017-05-18T23:02:36.139Z,19.14
2017-05-18T23:05:03.869Z,27.52
2017-05-18T23:07:31.591Z,23.88
2017-05-18T23:10:00.060Z,25.54
2017-05-18T23:12:27.783Z,24.00
2017-05-18T23:14:56.107Z,21.16
2017-05-18T23:17:24.583Z,28.84
2017-05-18T23:19:52.309Z,24.42
2017-05-18T23:22:20.079Z,21.60
2017-05-18T23:24:47.800Z,22.80
2017-05-18T23:27:16.269Z,23.40
2017-05-18T23:29:44.736Z,29.64
2017-05-18T23:32:12.473Z,30.26
2017-05-18T23:34:40.197Z,24.14
2017-05-18T23:37:07.930Z,34.02
2017-05-18T23:39:36.404Z,29.14
2017-05-18T23:42:04.156Z,34.68
2017-05-18T23:44:31.895Z,27.72
2017-05-18T23:46:59.637Z,26.82
2017-05-18T23:49:27.707Z,22.28
2017-05-18T23:51:55.438Z,22.18
2017-05-18T23:54:23.899Z,23.24
2017-05-18T23:56:51.640Z,27.28
2017-05-18T23:59:19.376Z,26.70
